createdAt,value
2022-08-28T00:00:40.298Z,11.00
2022-08-28T00:03:11.191Z,9.40
2022-08-28T00:05:41.256Z,7.90
2022-08-28T00:08:12.756Z,9.20
2022-08-28T00:10:41.809Z,9.00
2022-08-28T00:13:18.488Z,10.80
2022-08-28T00:15:50.999Z,11.40
2022-08-28T00:18:20.015Z,10.50
2022-08-28T00:20:49.666Z,10.70
2022-08-28T00:23:18.865Z,8.80
2022-08-28T00:25:46.629Z,9.70
2022-08-28T00:28:23.681Z,10.40
2022-08-28T00:30:57.273Z,8.50
2022-08-28T00:33:33.217Z,10.00
2022-08-28T00:36:02.887Z,8.10
2022-08-28T00:38:31.356Z,9.30
2022-08-28T00:41:04.073Z,8.00
2022-08-28T00:43:42.715Z,12.00
2022-08-28T00:46:20.442Z,7.50
2022-08-28T00:48:50.014Z,9.90
2022-08-28T00:51:38.239Z,8.60
2022-08-28T00:54:08.290Z,8.70
2022-08-28T00:56:40.709Z,7.70
2022-08-28T00:59:15.261Z,10.10
2022-08-28T01:01:46.284Z,8.20
2022-08-28T01:04:18.011Z,9.80
2022-08-28T01:06:49.930Z,9.00
2022-08-28T01:09:20.889Z,8.20
2022-08-28T01:11:52.896Z,6.20
2022-08-28T01:14:23.281Z,10.00
2022-08-28T01:16:56.145Z,7.60
2022-08-28T01:19:38.909Z,7.20
2022-08-28T01:22:26.057Z,10.90
2022-08-28T01:24:59.258Z,8.00
2022-08-28T01:27:27.807Z,11.20
2022-08-28T01:29:56.052Z,6.90
2022-08-28T01:32:41.596Z,6.60
2022-08-28T01:35:15.571Z,7.00
2022-08-28T01:37:43.915Z,7.10
2022-08-28T01:40:17.525Z,8.70
2022-08-28T01:42:45.371Z,8.30
2022-08-28T01:45:17.362Z,9.90
2022-08-28T01:47:46.623Z,9.00
2022-08-28T01:50:20.780Z,7.20
2022-08-28T01:52:48.587Z,8.70
2022-08-28T01:55:16.475Z,7.40
2022-08-28T01:57:53.826Z,7.40
2022-08-28T02:00:26.910Z,9.50
2022-08-28T02:02:58.300Z,7.00
2022-08-28T02:07:57.634Z,6.40
2022-08-28T02:10:27.863Z,8.10
2022-08-28T02:12:59.086Z,9.00
2022-08-28T02:17:57.486Z,9.60
2022-08-28T02:20:26.254Z,9.70
2022-08-28T02:22:54.123Z,7.80
2022-08-28T02:25:22.329Z,12.90
2022-08-28T02:27:50.310Z,8.40
2022-08-28T02:30:18.085Z,10.20
2022-08-28T02:32:46.603Z,7.20
2022-08-28T02:35:18.818Z,6.40
2022-08-28T02:37:47.864Z,3.90
2022-08-28T02:40:22.372Z,8.90
2022-08-28T02:42:50.508Z,7.70
2022-08-28T02:45:20.251Z,6.70
2022-08-28T02:47:51.450Z,6.00
2022-08-28T02:50:21.167Z,6.70
2022-08-28T02:52:49.304Z,8.30
2022-08-28T02:55:19.640Z,7.30
2022-08-28T02:57:48.355Z,4.70
2022-08-28T03:00:22.738Z,9.10
2022-08-28T03:02:52.999Z,6.50
2022-08-28T03:05:26.845Z,7.70
2022-08-28T03:07:55.771Z,6.90
2022-08-28T03:10:23.974Z,6.00
2022-08-28T03:12:51.808Z,7.00
2022-08-28T03:15:19.808Z,7.00
2022-08-28T03:17:47.969Z,7.90
2022-08-28T03:20:16.526Z,6.60
2022-08-28T03:23:03.040Z,4.40
2022-08-28T03:25:31.122Z,4.70
2022-08-28T03:27:58.882Z,5.30
2022-08-28T03:30:27.281Z,5.50
2022-08-28T03:32:55.143Z,8.80
2022-08-28T03:35:23.422Z,8.30
2022-08-28T03:37:51.700Z,9.00
2022-08-28T03:40:20.381Z,5.90
2022-08-28T03:42:53.288Z,6.40
2022-08-28T03:45:22.394Z,5.30
2022-08-28T03:47:51.061Z,7.70
2022-08-28T03:50:19.721Z,7.70
2022-08-28T03:52:47.654Z,6.60
2022-08-28T03:55:15.972Z,5.90
2022-08-28T03:57:43.677Z,5.60
2022-08-28T04:00:13.491Z,9.90
2022-08-28T04:02:43.872Z,7.60
2022-08-28T04:05:12.965Z,9.00
2022-08-28T04:07:40.687Z,5.40
2022-08-28T04:10:09.125Z,6.60
2022-08-28T04:12:37.131Z,9.70
2022-08-28T04:15:07.081Z,6.30
2022-08-28T04:17:38.194Z,7.10
2022-08-28T04:20:10.258Z,6.10
2022-08-28T04:22:39.130Z,8.60
2022-08-28T04:25:07.729Z,8.00
2022-08-28T04:27:35.587Z,6.50
2022-08-28T04:30:05.392Z,6.30
2022-08-28T04:32:35.598Z,6.00
2022-08-28T04:35:07.156Z,6.10
2022-08-28T04:37:36.504Z,5.80
2022-08-28T04:40:09.873Z,7.60
2022-08-28T04:42:40.052Z,7.90
2022-08-28T04:45:08.426Z,7.60
2022-08-28T04:47:38.820Z,9.60
2022-08-28T04:50:07.811Z,8.70
2022-08-28T04:52:35.630Z,5.90
2022-08-28T04:55:05.023Z,7.00
2022-08-28T04:57:36.246Z,6.80
2022-08-28T05:00:07.269Z,7.00
2022-08-28T05:02:35.092Z,5.80
2022-08-28T05:05:04.254Z,5.90
2022-08-28T05:07:33.014Z,7.50
2022-08-28T05:10:00.785Z,10.70
2022-08-28T05:12:28.438Z,5.00
2022-08-28T05:14:56.213Z,8.50
2022-08-28T05:17:23.948Z,8.30
2022-08-28T05:19:54.309Z,7.10
2022-08-28T05:22:22.075Z,7.60
2022-08-28T05:24:49.911Z,8.90
2022-08-28T05:27:17.729Z,6.60
2022-08-28T05:29:45.573Z,7.40
2022-08-28T05:32:13.306Z,6.70
2022-08-28T05:34:41.105Z,6.20
2022-08-28T05:37:09.656Z,6.90
2022-08-28T05:39:37.373Z,5.40
2022-08-28T05:42:05.624Z,6.90
2022-08-28T05:44:33.303Z,11.20
2022-08-28T05:47:00.996Z,7.50
2022-08-28T05:49:28.682Z,7.40
2022-08-28T05:51:56.542Z,7.80
2022-08-28T05:54:24.445Z,6.10
2022-08-28T05:56:52.141Z,7.70
2022-08-28T05:59:19.886Z,6.70
2022-08-28T06:01:49.620Z,13.40
2022-08-28T06:04:27.063Z,8.30
2022-08-28T06:06:55.829Z,7.20
2022-08-28T06:09:29.732Z,5.30
2022-08-28T06:12:02.287Z,7.90
2022-08-28T06:14:31.973Z,11.00
2022-08-28T06:17:02.430Z,7.90
2022-08-28T06:19:32.623Z,8.40
2022-08-28T06:22:07.367Z,4.60
2022-08-28T06:24:36.633Z,6.30
2022-08-28T06:27:05.194Z,5.70
2022-08-28T06:29:33.127Z,8.10
2022-08-28T06:32:04.878Z,4.70
2022-08-28T06:34:33.331Z,8.10
2022-08-28T06:37:01.301Z,6.30
2022-08-28T06:39:29.161Z,6.80
2022-08-28T06:41:56.941Z,10.20
2022-08-28T06:44:24.910Z,10.40
2022-08-28T06:46:54.558Z,7.60
2022-08-28T06:49:22.720Z,7.00
2022-08-28T06:51:51.078Z,8.20
2022-08-28T06:54:22.689Z,12.40
2022-08-28T06:56:52.433Z,9.20
2022-08-28T06:59:20.720Z,8.80
2022-08-28T07:01:48.569Z,13.40
2022-08-28T07:04:16.593Z,7.80
2022-08-28T07:06:47.118Z,8.80
2022-08-28T07:09:16.296Z,9.00
2022-08-28T07:11:49.073Z,8.90
2022-08-28T07:14:17.252Z,11.20
2022-08-28T07:16:45.037Z,7.40
2022-08-28T07:19:14.189Z,5.70
2022-08-28T07:21:45.168Z,8.60
2022-08-28T07:24:16.051Z,9.70
2022-08-28T07:26:46.080Z,11.10
2022-08-28T07:29:14.586Z,7.50
2022-08-28T07:31:46.722Z,9.50
2022-08-28T07:34:17.441Z,7.10
2022-08-28T07:36:45.751Z,11.90
2022-08-28T07:39:15.586Z,10.10
2022-08-28T07:41:43.644Z,14.50
2022-08-28T07:44:33.633Z,4.90
2022-08-28T07:47:05.707Z,8.80
2022-08-28T07:49:35.145Z,8.30
2022-08-28T07:52:04.445Z,7.60
2022-08-28T07:54:32.654Z,8.70
2022-08-28T07:57:02.089Z,9.60
2022-08-28T07:59:36.602Z,5.80
2022-08-28T08:02:07.070Z,11.20
2022-08-28T08:04:35.346Z,10.60
2022-08-28T08:07:04.861Z,10.50
2022-08-28T08:09:42.118Z,13.50
2022-08-28T08:12:13.497Z,11.80
2022-08-28T08:14:43.429Z,5.90
2022-08-28T08:17:11.841Z,8.70
2022-08-28T08:19:39.876Z,9.50
2022-08-28T08:22:07.708Z,7.20
2022-08-28T08:24:35.601Z,8.60
2022-08-28T08:27:03.531Z,9.80
2022-08-28T08:29:35.951Z,8.80
2022-08-28T08:32:11.044Z,7.60
2022-08-28T08:34:49.303Z,6.60
2022-08-28T08:37:17.035Z,11.30
2022-08-28T08:39:44.787Z,9.30
2022-08-28T08:42:25.407Z,10.50
2022-08-28T08:44:57.966Z,8.90
2022-08-28T08:47:53.929Z,12.10
2022-08-28T08:50:32.894Z,11.40
2022-08-28T08:53:25.689Z,6.20
2022-08-28T08:55:57.000Z,7.10
2022-08-28T09:01:39.173Z,8.40
2022-08-28T09:04:21.652Z,8.00
2022-08-28T09:07:01.115Z,12.90
2022-08-28T09:09:34.069Z,4.20
2022-08-28T09:12:05.610Z,7.60
2022-08-28T09:15:05.143Z,8.90
2022-08-28T09:17:41.289Z,10.50
2022-08-28T09:20:15.990Z,9.40
2022-08-28T09:22:47.345Z,6.90
2022-08-28T09:25:59.688Z,7.10
2022-08-28T09:28:36.118Z,8.90
2022-08-28T09:31:15.605Z,6.10
2022-08-28T09:33:52.156Z,7.80
2022-08-28T09:36:32.520Z,6.40
2022-08-28T09:39:27.699Z,6.10
2022-08-28T09:42:34.152Z,7.70
2022-08-28T09:45:20.973Z,9.60
2022-08-28T09:47:56.370Z,8.30
2022-08-28T09:50:31.802Z,8.60
2022-08-28T09:53:15.189Z,6.80
2022-08-28T09:56:11.774Z,11.50
2022-08-28T09:58:43.921Z,6.40
2022-08-28T10:02:04.979Z,6.50
2022-08-28T10:05:03.237Z,5.90
2022-08-28T10:07:43.377Z,10.70
2022-08-28T10:10:45.042Z,5.70
2022-08-28T10:13:54.356Z,8.10
2022-08-28T10:17:32.444Z,9.60
2022-08-28T10:20:15.583Z,9.70
2022-08-28T10:23:05.115Z,7.20
2022-08-28T10:25:59.393Z,7.30
2022-08-28T10:28:41.513Z,6.50
2022-08-28T10:31:45.235Z,9.80
2022-08-28T10:34:30.803Z,8.40
2022-08-28T10:37:36.986Z,9.20
2022-08-28T10:40:17.640Z,7.30
2022-08-28T10:42:59.745Z,6.90
2022-08-28T10:45:33.320Z,7.40
2022-08-28T10:48:11.129Z,5.60
2022-08-28T10:50:47.944Z,12.10
2022-08-28T10:53:42.254Z,7.40
2022-08-28T10:56:26.008Z,5.90
2022-08-28T10:58:59.488Z,6.40
2022-08-28T11:01:40.629Z,8.20
2022-08-28T11:04:24.870Z,7.30
2022-08-28T11:07:32.240Z,7.60
2022-08-28T11:10:32.222Z,8.50
2022-08-28T11:13:02.801Z,8.10
2022-08-28T11:15:36.838Z,7.20
2022-08-28T11:18:41.639Z,4.50
2022-08-28T11:21:33.070Z,5.40
2022-08-28T11:24:18.033Z,7.20
2022-08-28T11:27:05.457Z,4.40
2022-08-28T11:30:10.805Z,7.20
2022-08-28T11:32:50.312Z,5.50
2022-08-28T11:35:20.945Z,6.20
2022-08-28T11:37:52.740Z,6.90
2022-08-28T11:40:32.701Z,5.00
2022-08-28T11:43:29.584Z,6.10
2022-08-28T11:46:00.351Z,5.90
2022-08-28T11:48:37.405Z,5.60
2022-08-28T11:51:17.049Z,7.10
2022-08-28T11:54:17.333Z,9.90
2022-08-28T11:57:05.323Z,11.00
2022-08-28T11:59:53.414Z,4.90
2022-08-28T12:02:39.832Z,4.40
2022-08-28T12:05:32.497Z,6.20
2022-08-28T12:08:04.985Z,5.90
2022-08-28T12:10:32.811Z,6.90
2022-08-28T12:13:05.078Z,6.90
2022-08-28T12:15:33.572Z,4.20
2022-08-28T12:18:12.002Z,5.10
2022-08-28T12:21:01.054Z,3.90
2022-08-28T12:23:41.532Z,3.50
2022-08-28T12:26:22.394Z,6.30
2022-08-28T12:29:01.183Z,5.10
2022-08-28T12:31:48.827Z,4.10
2022-08-28T12:34:43.605Z,6.90
2022-08-28T12:37:52.176Z,5.10
2022-08-28T12:40:30.450Z,5.50
2022-08-28T12:43:04.180Z,7.20
2022-08-28T12:45:55.462Z,5.40
2022-08-28T12:48:25.094Z,6.30
2022-08-28T12:51:11.808Z,2.80
2022-08-28T12:53:50.781Z,4.30
2022-08-28T12:56:21.894Z,5.50
2022-08-28T12:58:50.806Z,5.10
2022-08-28T13:01:21.808Z,5.40
2022-08-28T13:03:53.433Z,4.90
2022-08-28T13:06:32.822Z,6.80
2022-08-28T13:09:14.105Z,5.70
2022-08-28T13:11:49.148Z,3.40
2022-08-28T13:14:46.062Z,4.40
2022-08-28T13:17:17.518Z,3.40
2022-08-28T13:19:45.297Z,3.80
2022-08-28T13:22:35.740Z,4.30
2022-08-28T13:25:05.418Z,5.90
2022-08-28T13:27:33.286Z,6.00
2022-08-28T13:30:29.048Z,5.30
2022-08-28T13:33:02.561Z,5.10
2022-08-28T13:35:36.802Z,6.40
2022-08-28T13:38:10.555Z,4.80
2022-08-28T13:41:01.844Z,4.70
2022-08-28T13:43:45.256Z,6.60
2022-08-28T13:46:13.755Z,4.00
2022-08-28T13:48:41.516Z,5.50
2022-08-28T13:51:20.209Z,10.70
2022-08-28T13:53:50.443Z,6.30
2022-08-28T13:56:21.940Z,5.10
2022-08-28T13:58:57.298Z,4.10
2022-08-28T14:01:46.404Z,5.30
2022-08-28T14:04:14.593Z,5.70
2022-08-28T14:06:44.071Z,5.00
2022-08-28T14:09:15.426Z,5.10
2022-08-28T14:11:47.862Z,6.80
2022-08-28T14:14:16.899Z,6.40
2022-08-28T14:16:45.874Z,4.60
2022-08-28T14:19:13.684Z,5.40
2022-08-28T14:21:41.831Z,6.70
2022-08-28T14:24:10.098Z,6.50
2022-08-28T14:26:38.576Z,4.80
2022-08-28T14:29:09.508Z,8.40
2022-08-28T14:34:05.489Z,5.70
2022-08-28T14:36:33.417Z,7.00
2022-08-28T14:39:06.163Z,4.00
2022-08-28T14:41:35.505Z,6.90
2022-08-28T14:44:04.573Z,6.30
2022-08-28T14:46:35.881Z,6.00
2022-08-28T14:49:10.782Z,5.70
2022-08-28T14:51:42.360Z,10.30
2022-08-28T14:54:14.492Z,7.30
2022-08-28T14:56:45.091Z,5.90
2022-08-28T14:59:21.884Z,6.90
2022-08-28T15:01:55.492Z,5.60
2022-08-28T15:04:26.047Z,5.50
2022-08-28T15:06:59.670Z,3.90
2022-08-28T15:09:27.975Z,5.40
2022-08-28T15:11:56.094Z,6.70
2022-08-28T15:14:24.011Z,4.90
2022-08-28T15:16:52.937Z,5.50
2022-08-28T15:19:23.276Z,4.80
2022-08-28T15:21:55.064Z,4.70
2022-08-28T15:24:31.355Z,8.50
2022-08-28T15:26:59.844Z,5.80
2022-08-28T15:29:29.932Z,6.50
2022-08-28T15:31:58.752Z,4.30
2022-08-28T15:34:28.493Z,4.50
2022-08-28T15:36:58.130Z,4.90
2022-08-28T15:39:47.362Z,8.40
2022-08-28T15:42:15.320Z,6.50
2022-08-28T15:44:44.330Z,6.60
2022-08-28T15:47:13.760Z,5.10
2022-08-28T15:49:44.798Z,7.60
2022-08-28T15:52:18.766Z,6.30
2022-08-28T15:54:48.806Z,10.10
2022-08-28T15:57:17.495Z,5.50
2022-08-28T15:59:49.668Z,6.30
2022-08-28T16:02:23.013Z,5.90
2022-08-28T16:04:53.576Z,4.20
2022-08-28T16:07:22.859Z,6.80
2022-08-28T16:09:51.634Z,5.50
2022-08-28T16:12:19.632Z,7.20
2022-08-28T16:14:47.366Z,4.70
2022-08-28T16:17:15.080Z,5.20
2022-08-28T16:19:43.075Z,4.10
2022-08-28T16:22:15.858Z,6.30
2022-08-28T16:24:45.619Z,4.80
2022-08-28T16:27:15.811Z,6.50
2022-08-28T16:29:45.530Z,5.40
2022-08-28T16:32:13.310Z,4.20
2022-08-28T16:34:41.681Z,4.10
2022-08-28T16:37:13.337Z,4.60
2022-08-28T16:39:46.440Z,5.60
2022-08-28T16:42:14.310Z,6.00
2022-08-28T16:44:42.065Z,4.00
2022-08-28T16:47:10.250Z,5.40
2022-08-28T16:49:38.118Z,5.20
2022-08-28T16:52:06.076Z,6.60
2022-08-28T16:54:33.850Z,4.70
2022-08-28T16:57:02.110Z,7.40
2022-08-28T16:59:29.889Z,7.30
2022-08-28T17:01:57.668Z,6.40
2022-08-28T17:04:25.821Z,6.30
2022-08-28T17:06:53.598Z,3.90
2022-08-28T17:09:23.548Z,4.10
2022-08-28T17:11:52.096Z,8.80
2022-08-28T17:14:22.187Z,5.50
2022-08-28T17:16:52.054Z,6.30
2022-08-28T17:19:20.941Z,4.70
2022-08-28T17:22:07.724Z,5.50
2022-08-28T17:24:35.577Z,5.90
2022-08-28T17:27:05.892Z,6.00
2022-08-28T17:29:36.362Z,9.10
2022-08-28T17:32:05.748Z,5.10
2022-08-28T17:34:34.622Z,7.30
2022-08-28T17:37:04.185Z,9.10
2022-08-28T17:39:32.115Z,5.80
2022-08-28T17:41:59.978Z,8.50
2022-08-28T17:44:27.945Z,7.50
2022-08-28T17:46:56.021Z,6.60
2022-08-28T17:49:23.813Z,7.70
2022-08-28T17:51:51.519Z,7.20
2022-08-28T17:54:24.407Z,9.00
2022-08-28T17:56:54.514Z,6.30
2022-08-28T17:59:25.148Z,6.40
2022-08-28T18:01:53.927Z,6.70
2022-08-28T18:04:24.399Z,9.70
2022-08-28T18:09:23.929Z,6.40
2022-08-28T18:11:53.395Z,4.30
2022-08-28T18:14:21.647Z,7.20
2022-08-28T18:16:50.057Z,5.80
2022-08-28T18:19:18.253Z,5.60
2022-08-28T18:21:46.235Z,4.70
2022-08-28T18:24:14.086Z,5.80
2022-08-28T18:26:43.777Z,5.20
2022-08-28T18:29:12.555Z,5.30
2022-08-28T18:31:41.967Z,5.50
2022-08-28T18:34:10.627Z,5.30
2022-08-28T18:36:43.428Z,4.00
2022-08-28T18:39:11.836Z,5.20
2022-08-28T18:41:43.879Z,7.40
2022-08-28T18:44:17.706Z,5.00
2022-08-28T18:46:48.236Z,6.30
2022-08-28T18:49:16.656Z,6.20
2022-08-28T18:51:45.833Z,7.10
2022-08-28T18:54:16.982Z,6.50
2022-08-28T18:59:13.631Z,5.00
2022-08-28T19:01:42.095Z,4.50
2022-08-28T19:04:10.074Z,4.80
2022-08-28T19:06:38.097Z,5.20
2022-08-28T19:09:06.350Z,5.90
2022-08-28T19:11:35.886Z,5.70
2022-08-28T19:14:04.228Z,6.10
2022-08-28T19:16:32.266Z,7.10
2022-08-28T19:19:02.069Z,6.00
2022-08-28T19:21:30.352Z,5.20
2022-08-28T19:23:58.162Z,6.00
2022-08-28T19:26:27.657Z,7.10
2022-08-28T19:28:56.669Z,6.60
2022-08-28T19:31:27.264Z,6.50
2022-08-28T19:33:57.393Z,6.60
2022-08-28T19:36:27.349Z,5.10
2022-08-28T19:38:55.238Z,6.80
2022-08-28T19:41:23.421Z,7.40
2022-08-28T19:43:51.492Z,5.50
2022-08-28T19:46:20.595Z,4.90
2022-08-28T19:48:52.093Z,6.30
2022-08-28T19:51:24.034Z,5.30
2022-08-28T19:53:58.213Z,5.10
2022-08-28T19:56:33.187Z,7.70
2022-08-28T19:59:04.108Z,6.90
2022-08-28T20:01:37.745Z,6.60
2022-08-28T20:04:08.637Z,6.70
2022-08-28T20:06:37.103Z,4.40
2022-08-28T20:09:09.430Z,7.90
2022-08-28T20:11:42.062Z,6.80
2022-08-28T20:14:09.946Z,5.80
2022-08-28T20:16:42.861Z,5.60
2022-08-28T20:19:12.663Z,7.00
2022-08-28T20:21:44.262Z,4.90
2022-08-28T20:24:17.672Z,5.80
2022-08-28T20:26:45.447Z,6.60
2022-08-28T20:29:14.765Z,7.90
2022-08-28T20:31:47.214Z,6.20
2022-08-28T20:34:18.320Z,7.10
2022-08-28T20:36:46.759Z,7.40
2022-08-28T20:39:15.625Z,6.40
2022-08-28T20:41:44.626Z,9.90
2022-08-28T20:44:16.366Z,12.80
2022-08-28T20:46:48.972Z,13.40
2022-08-28T20:49:23.808Z,12.10
2022-08-28T20:52:00.767Z,17.20
2022-08-28T20:54:36.948Z,12.60
2022-08-28T20:57:09.660Z,18.50
2022-08-28T20:59:41.252Z,17.00
2022-08-28T21:02:14.044Z,14.20
2022-08-28T21:04:44.375Z,12.20
2022-08-28T21:07:15.153Z,12.80
2022-08-28T21:10:05.205Z,15.50
2022-08-28T21:12:31.348Z,14.00
2022-08-28T21:14:59.761Z,11.50
2022-08-28T21:17:29.544Z,10.20
2022-08-28T21:20:02.859Z,12.10
2022-08-28T21:22:33.034Z,10.20
2022-08-28T21:25:06.297Z,13.50
2022-08-28T21:27:35.215Z,9.00
2022-08-28T21:30:06.146Z,8.90
2022-08-28T21:32:34.990Z,8.50
2022-08-28T21:35:06.624Z,10.60
2022-08-28T21:37:35.204Z,8.20
2022-08-28T21:40:07.276Z,10.20
2022-08-28T21:42:36.215Z,7.80
2022-08-28T21:45:11.266Z,10.00
2022-08-28T21:47:41.883Z,8.40
2022-08-28T21:50:11.360Z,6.10
2022-08-28T21:52:39.402Z,6.50
2022-08-28T21:55:14.908Z,7.00
2022-08-28T21:57:43.117Z,8.60
2022-08-28T22:00:19.734Z,6.20
2022-08-28T22:02:48.584Z,6.00
2022-08-28T22:05:17.102Z,6.80
2022-08-28T22:07:45.161Z,10.90
2022-08-28T22:10:13.058Z,38.30
2022-08-28T22:12:40.891Z,48.20
2022-08-28T22:15:09.015Z,73.20
2022-08-28T22:17:36.807Z,60.40
2022-08-28T22:20:05.615Z,50.10
2022-08-28T22:22:52.193Z,51.80
2022-08-28T22:25:20.090Z,13.60
2022-08-28T22:27:47.878Z,13.50
2022-08-28T22:30:15.687Z,8.40
2022-08-28T22:32:45.296Z,9.80
2022-08-28T22:35:13.058Z,6.90
2022-08-28T22:37:40.910Z,4.80
2022-08-28T22:40:13.471Z,8.40
2022-08-28T22:42:42.667Z,7.10
2022-08-28T22:45:10.943Z,6.60
2022-08-28T22:47:39.684Z,5.90
2022-08-28T22:50:08.516Z,5.80
2022-08-28T22:52:37.202Z,6.50
2022-08-28T22:55:10.463Z,5.90
2022-08-28T22:57:40.338Z,5.40
2022-08-28T23:00:14.070Z,5.80
2022-08-28T23:02:42.550Z,8.40
2022-08-28T23:05:11.110Z,6.10
2022-08-28T23:07:38.974Z,6.80
2022-08-28T23:10:08.387Z,4.60
2022-08-28T23:12:36.419Z,8.00
2022-08-28T23:15:11.829Z,5.50
2022-08-28T23:17:39.749Z,6.20
2022-08-28T23:20:13.276Z,4.60
2022-08-28T23:22:41.311Z,6.00
2022-08-28T23:25:15.649Z,10.80
2022-08-28T23:27:45.197Z,8.60
2022-08-28T23:30:16.151Z,6.10
2022-08-28T23:32:44.399Z,8.60
2022-08-28T23:35:14.156Z,7.50
2022-08-28T23:37:48.034Z,6.70
2022-08-28T23:40:21.787Z,7.00
2022-08-28T23:42:50.285Z,7.40
2022-08-28T23:45:20.100Z,6.60
2022-08-28T23:47:48.194Z,7.40
2022-08-28T23:50:22.062Z,7.10
2022-08-28T23:52:50.812Z,6.30
2022-08-28T23:55:19.898Z,8.30
2022-08-28T23:57:48.206Z,7.40
